createdAt,value
2023-05-30T00:01:39.962Z,2.47
2023-05-30T00:04:07.282Z,3.83
2023-05-30T00:06:34.858Z,2.97
2023-05-30T00:09:02.644Z,3.20
2023-05-30T00:11:30.434Z,3.42
2023-05-30T00:13:57.818Z,3.65
2023-05-30T00:16:25.232Z,6.68
2023-05-30T00:18:57.453Z,3.20
2023-05-30T00:21:24.894Z,3.17
2023-05-30T00:23:52.308Z,3.88
2023-05-30T00:26:19.642Z,3.38
2023-05-30T00:28:54.048Z,2.63
2023-05-30T00:31:21.493Z,3.25
2023-05-30T00:33:48.862Z,3.22
2023-05-30T00:36:17.892Z,2.85
2023-05-30T00:38:45.244Z,4.10
2023-05-30T00:41:12.784Z,4.38
2023-05-30T00:43:40.095Z,2.33
2023-05-30T00:46:07.459Z,2.88
2023-05-30T00:48:34.764Z,4.07
2023-05-30T00:51:02.111Z,2.80
2023-05-30T00:53:29.361Z,3.08
2023-05-30T00:55:58.279Z,4.85
2023-05-30T00:58:25.532Z,3.28
2023-05-30T01:00:53.708Z,3.60
2023-05-30T01:03:26.452Z,3.15
2023-05-30T01:05:54.825Z,3.95
2023-05-30T01:08:22.105Z,3.28
2023-05-30T01:10:49.575Z,3.42
2023-05-30T01:13:17.384Z,4.03
2023-05-30T01:15:44.668Z,3.22
2023-05-30T01:18:13.555Z,3.17
2023-05-30T01:20:45.804Z,3.10
2023-05-30T01:23:15.149Z,3.47
2023-05-30T01:25:42.490Z,3.45
2023-05-30T01:28:09.804Z,3.10
2023-05-30T01:30:37.769Z,3.65
2023-05-30T01:33:05.144Z,3.33
2023-05-30T01:35:32.490Z,3.83
2023-05-30T01:37:59.923Z,3.03
2023-05-30T01:40:27.191Z,3.30
2023-05-30T01:42:54.522Z,3.25
2023-05-30T01:45:21.915Z,2.72
2023-05-30T01:47:49.364Z,2.92
2023-05-30T01:50:16.810Z,3.42
2023-05-30T01:52:44.224Z,4.53
2023-05-30T01:55:11.508Z,4.28
2023-05-30T01:57:38.801Z,2.88
2023-05-30T02:00:06.225Z,3.88
2023-05-30T02:02:39.944Z,2.92
2023-05-30T02:05:07.366Z,3.85
2023-05-30T02:07:34.661Z,3.25
2023-05-30T02:10:01.981Z,3.60
2023-05-30T02:12:29.247Z,3.42
2023-05-30T02:14:57.031Z,5.57
2023-05-30T02:17:24.833Z,2.63
2023-05-30T02:19:52.221Z,5.70
2023-05-30T02:22:19.575Z,2.75
2023-05-30T02:24:46.908Z,4.35
2023-05-30T02:27:14.677Z,4.32
2023-05-30T02:29:42.778Z,2.90
2023-05-30T02:32:10.098Z,3.00
2023-05-30T02:34:38.135Z,3.42
2023-05-30T02:37:05.456Z,3.25
2023-05-30T02:39:33.830Z,3.13
2023-05-30T02:42:01.522Z,3.03
2023-05-30T02:44:28.841Z,3.80
2023-05-30T02:46:56.164Z,3.25
2023-05-30T02:49:23.516Z,3.55
2023-05-30T02:51:51.387Z,3.22
2023-05-30T02:54:24.377Z,4.35
2023-05-30T02:57:20.891Z,4.60
2023-05-30T03:02:47.689Z,4.35
2023-05-30T03:05:15.313Z,3.13
2023-05-30T03:07:42.610Z,3.13
2023-05-30T03:10:11.113Z,3.15
2023-05-30T03:12:43.292Z,3.15
2023-05-30T03:15:10.666Z,5.25
2023-05-30T03:17:38.397Z,4.00
2023-05-30T03:20:08.290Z,3.92
2023-05-30T03:22:36.523Z,4.65
2023-05-30T03:25:04.823Z,3.85
2023-05-30T03:27:34.192Z,3.63
2023-05-30T03:30:01.677Z,3.78
2023-05-30T03:32:29.596Z,3.00
2023-05-30T03:34:57.013Z,3.33
2023-05-30T03:37:27.134Z,3.33
2023-05-30T03:39:54.458Z,5.50
2023-05-30T03:42:22.714Z,3.20
2023-05-30T03:44:50.077Z,3.65
2023-05-30T03:47:17.395Z,3.90
2023-05-30T03:49:44.837Z,3.55
2023-05-30T03:52:12.069Z,3.75
2023-05-30T03:54:39.359Z,3.15
2023-05-30T03:57:07.322Z,4.10
2023-05-30T03:59:34.658Z,3.70
2023-05-30T04:02:02.080Z,3.50
2023-05-30T04:04:29.428Z,4.07
2023-05-30T04:06:56.690Z,3.22
2023-05-30T04:09:24.117Z,3.47
2023-05-30T04:11:51.404Z,3.38
2023-05-30T04:14:18.681Z,3.40
2023-05-30T04:16:46.335Z,3.33
2023-05-30T04:19:13.699Z,3.15
2023-05-30T04:21:40.947Z,4.30
2023-05-30T04:24:08.676Z,3.70
2023-05-30T04:26:37.802Z,3.25
2023-05-30T04:29:05.634Z,3.47
2023-05-30T04:31:33.624Z,3.70
2023-05-30T04:34:01.604Z,3.25
2023-05-30T04:36:29.310Z,3.15
2023-05-30T04:38:56.616Z,3.08
2023-05-30T04:41:26.574Z,3.60
2023-05-30T04:43:58.875Z,3.30
2023-05-30T04:46:29.257Z,3.40
2023-05-30T04:49:02.322Z,3.00
2023-05-30T04:51:31.323Z,3.50
2023-05-30T04:53:58.750Z,3.33
2023-05-30T04:56:27.737Z,3.47
2023-05-30T04:58:55.236Z,3.33
2023-05-30T05:01:25.435Z,3.85
2023-05-30T05:03:53.228Z,2.58
2023-05-30T05:06:21.181Z,3.30
2023-05-30T05:08:48.556Z,5.28
2023-05-30T05:11:15.934Z,3.17
2023-05-30T05:13:44.279Z,2.90
2023-05-30T05:16:11.606Z,3.13
2023-05-30T05:18:38.961Z,3.60
2023-05-30T05:21:07.970Z,4.70
2023-05-30T05:23:35.561Z,3.03
2023-05-30T05:26:02.913Z,3.92
2023-05-30T05:28:30.308Z,3.03
2023-05-30T05:30:58.602Z,3.35
2023-05-30T05:33:26.129Z,3.00
2023-05-30T05:35:53.399Z,2.80
2023-05-30T05:38:21.145Z,3.40
2023-05-30T05:40:48.447Z,3.42
2023-05-30T05:43:15.697Z,3.70
2023-05-30T05:45:43.137Z,3.75
2023-05-30T05:48:10.649Z,4.13
2023-05-30T05:50:38.011Z,3.47
2023-05-30T05:53:05.260Z,2.83
2023-05-30T05:55:32.664Z,3.67
2023-05-30T05:57:59.979Z,5.07
2023-05-30T06:00:28.084Z,3.35
2023-05-30T06:02:55.828Z,3.55
2023-05-30T06:05:23.501Z,2.78
2023-05-30T06:07:50.797Z,3.53
2023-05-30T06:10:18.098Z,3.75
2023-05-30T06:12:45.359Z,2.78
2023-05-30T06:15:13.854Z,2.97
2023-05-30T06:17:41.358Z,2.90
2023-05-30T06:20:08.811Z,3.53
2023-05-30T06:22:37.477Z,4.07
2023-05-30T06:25:04.984Z,4.07
2023-05-30T06:27:32.206Z,3.40
2023-05-30T06:29:59.528Z,3.40
2023-05-30T06:32:27.008Z,4.82
2023-05-30T06:34:54.347Z,4.20
2023-05-30T06:37:21.674Z,3.00
2023-05-30T06:39:49.034Z,4.10
2023-05-30T06:42:16.304Z,3.15
2023-05-30T06:44:45.085Z,2.65
2023-05-30T06:47:12.560Z,2.83
2023-05-30T06:49:39.895Z,3.30
2023-05-30T06:52:07.324Z,3.17
2023-05-30T06:54:34.819Z,2.85
2023-05-30T06:57:05.239Z,3.30
2023-05-30T06:59:34.519Z,3.72
2023-05-30T07:02:01.889Z,3.55
2023-05-30T07:04:29.225Z,4.10
2023-05-30T07:06:56.643Z,3.25
2023-05-30T07:09:23.984Z,3.25
2023-05-30T07:11:53.116Z,3.80
2023-05-30T07:14:20.581Z,2.67
2023-05-30T07:16:48.048Z,3.08
2023-05-30T07:19:15.492Z,3.22
2023-05-30T07:21:42.782Z,3.10
2023-05-30T07:24:10.264Z,3.03
2023-05-30T07:26:37.923Z,3.97
2023-05-30T07:29:05.388Z,3.22
2023-05-30T07:31:32.709Z,3.45
2023-05-30T07:34:00.250Z,3.50
2023-05-30T07:36:27.615Z,3.28
2023-05-30T07:38:54.933Z,2.60
2023-05-30T07:41:23.348Z,3.17
2023-05-30T07:43:50.913Z,3.30
2023-05-30T07:46:19.336Z,2.80
2023-05-30T07:48:46.833Z,3.40
2023-05-30T07:51:14.134Z,3.20
2023-05-30T07:53:41.482Z,3.95
2023-05-30T07:56:09.152Z,6.22
2023-05-30T07:58:36.411Z,2.72
2023-05-30T08:01:03.766Z,3.30
2023-05-30T08:03:31.381Z,3.50
2023-05-30T08:05:58.808Z,3.50
2023-05-30T08:08:27.029Z,2.78
2023-05-30T08:10:54.446Z,3.17
2023-05-30T08:13:22.031Z,3.05
2023-05-30T08:15:49.542Z,4.00
2023-05-30T08:18:16.811Z,3.63
2023-05-30T08:20:44.187Z,2.92
2023-05-30T08:23:11.509Z,3.42
2023-05-30T08:25:43.770Z,4.07
2023-05-30T08:28:14.116Z,5.03
2023-05-30T08:30:41.429Z,3.63
2023-05-30T08:33:11.379Z,4.15
2023-05-30T08:35:38.896Z,2.97
2023-05-30T08:38:06.184Z,3.55
2023-05-30T08:40:33.425Z,3.05
2023-05-30T08:43:00.658Z,3.42
2023-05-30T08:45:27.931Z,3.65
2023-05-30T08:47:58.304Z,3.58
2023-05-30T08:50:25.842Z,3.85
2023-05-30T08:52:53.041Z,3.60
2023-05-30T08:55:20.298Z,3.65
2023-05-30T08:57:47.602Z,5.00
2023-05-30T09:00:15.203Z,3.55
2023-05-30T09:02:42.834Z,3.83
2023-05-30T09:05:10.379Z,4.03
2023-05-30T09:07:37.809Z,4.35
2023-05-30T09:10:05.862Z,3.10
2023-05-30T09:12:33.282Z,3.75
2023-05-30T09:15:00.529Z,3.67
2023-05-30T09:17:28.009Z,4.60
2023-05-30T09:19:55.352Z,3.40
2023-05-30T09:22:22.654Z,3.80
2023-05-30T09:24:49.922Z,2.83
2023-05-30T09:27:17.246Z,3.45
2023-05-30T09:29:44.587Z,3.08
2023-05-30T09:32:12.147Z,3.53
2023-05-30T09:34:39.553Z,3.92
2023-05-30T09:37:06.830Z,3.15
2023-05-30T09:39:34.046Z,3.40
2023-05-30T09:42:01.532Z,3.53
2023-05-30T09:44:28.855Z,3.10
2023-05-30T09:46:57.046Z,2.97
2023-05-30T09:49:24.684Z,3.38
2023-05-30T09:51:52.082Z,4.00
2023-05-30T09:54:19.314Z,3.78
2023-05-30T09:56:46.644Z,3.05
2023-05-30T09:59:14.736Z,4.00
2023-05-30T10:01:42.467Z,3.20
2023-05-30T10:04:09.909Z,3.60
2023-05-30T10:06:38.177Z,3.47
2023-05-30T10:09:05.424Z,3.13
2023-05-30T10:11:32.794Z,2.83
2023-05-30T10:14:00.787Z,3.97
2023-05-30T10:16:28.705Z,3.05
2023-05-30T10:18:57.409Z,3.00
2023-05-30T10:21:24.686Z,3.25
2023-05-30T10:23:51.943Z,3.45
2023-05-30T10:26:19.207Z,3.28
2023-05-30T10:28:46.641Z,4.68
2023-05-30T10:31:13.907Z,3.05
2023-05-30T10:33:56.225Z,3.45
2023-05-30T10:36:24.607Z,2.83
2023-05-30T10:38:52.386Z,3.33
2023-05-30T10:41:19.644Z,3.40
2023-05-30T10:43:46.994Z,3.08
2023-05-30T10:46:14.499Z,4.30
2023-05-30T10:48:45.113Z,3.38
2023-05-30T10:51:12.723Z,3.40
2023-05-30T10:53:40.044Z,2.83
2023-05-30T10:56:07.324Z,3.60
2023-05-30T10:58:34.939Z,3.65
2023-05-30T11:01:03.592Z,4.55
2023-05-30T11:03:31.150Z,3.35
2023-05-30T11:05:58.754Z,3.78
2023-05-30T11:08:26.181Z,3.75
2023-05-30T11:10:53.445Z,2.92
2023-05-30T11:13:20.692Z,2.88
2023-05-30T11:15:57.265Z,4.95
2023-05-30T11:18:26.856Z,2.90
2023-05-30T11:20:54.380Z,3.60
2023-05-30T11:23:23.017Z,2.90
2023-05-30T11:25:50.685Z,3.13
2023-05-30T11:28:18.031Z,3.50
2023-05-30T11:30:45.331Z,3.30
2023-05-30T11:33:13.167Z,3.10
2023-05-30T11:35:40.622Z,3.83
2023-05-30T11:38:07.894Z,3.22
2023-05-30T11:40:35.228Z,3.03
2023-05-30T11:43:03.223Z,3.53
2023-05-30T11:45:30.585Z,3.30
2023-05-30T11:47:57.915Z,2.95
2023-05-30T11:50:25.858Z,2.90
2023-05-30T11:52:53.057Z,3.60
2023-05-30T11:55:20.642Z,2.67
2023-05-30T11:57:47.953Z,3.35
2023-05-30T12:00:15.350Z,3.40
2023-05-30T12:02:42.776Z,3.30
2023-05-30T12:05:10.461Z,3.00
2023-05-30T12:07:38.129Z,3.20
2023-05-30T12:10:06.034Z,2.60
2023-05-30T12:12:33.302Z,2.72
2023-05-30T12:15:02.047Z,3.65
2023-05-30T12:17:29.962Z,3.65
2023-05-30T12:19:57.574Z,2.88
2023-05-30T12:22:25.646Z,3.00
2023-05-30T12:24:53.238Z,3.75
2023-05-30T12:27:20.589Z,2.55
2023-05-30T12:29:47.950Z,3.38
2023-05-30T12:32:15.169Z,2.92
2023-05-30T12:34:42.456Z,2.67
2023-05-30T12:37:09.681Z,2.70
2023-05-30T12:39:36.937Z,2.65
2023-05-30T12:42:04.277Z,2.90
2023-05-30T12:44:31.656Z,2.90
2023-05-30T12:46:58.999Z,2.90
2023-05-30T12:49:26.584Z,3.17
2023-05-30T12:51:53.807Z,3.03
2023-05-30T12:54:22.053Z,2.97
2023-05-30T12:56:49.407Z,2.70
2023-05-30T12:59:16.869Z,2.80
2023-05-30T13:01:44.202Z,2.67
2023-05-30T13:04:11.974Z,3.70
2023-05-30T13:06:39.444Z,3.97
2023-05-30T13:09:07.638Z,3.45
2023-05-30T13:11:34.900Z,2.65
2023-05-30T13:14:02.554Z,2.45
2023-05-30T13:16:29.959Z,3.13
2023-05-30T13:18:57.309Z,3.92
2023-05-30T13:21:24.652Z,3.35
2023-05-30T13:23:52.000Z,2.72
2023-05-30T13:26:19.332Z,2.90
2023-05-30T13:28:46.681Z,3.40
2023-05-30T13:31:13.939Z,2.42
2023-05-30T13:33:41.355Z,3.15
2023-05-30T13:36:08.787Z,3.90
2023-05-30T13:38:36.696Z,3.70
2023-05-30T13:41:03.980Z,3.10
2023-05-30T13:43:31.271Z,3.67
2023-05-30T13:45:58.562Z,3.17
2023-05-30T13:48:25.972Z,3.08
2023-05-30T13:50:53.808Z,4.13
2023-05-30T13:53:29.865Z,3.42
2023-05-30T13:56:03.611Z,3.15
2023-05-30T13:58:30.913Z,2.97
2023-05-30T14:00:58.443Z,2.90
2023-05-30T14:03:26.020Z,2.45
2023-05-30T14:05:53.427Z,1.90
2023-05-30T14:08:21.375Z,3.33
2023-05-30T14:10:49.575Z,3.55
2023-05-30T14:13:17.584Z,3.33
2023-05-30T14:15:45.155Z,2.97
2023-05-30T14:18:13.222Z,2.55
2023-05-30T14:20:40.652Z,3.55
2023-05-30T14:23:08.398Z,4.15
2023-05-30T14:25:36.945Z,2.65
2023-05-30T14:28:04.227Z,2.90
2023-05-30T14:30:33.798Z,4.13
2023-05-30T14:33:03.543Z,3.60
2023-05-30T14:35:31.218Z,3.13
2023-05-30T14:37:58.534Z,2.58
2023-05-30T14:40:25.838Z,2.60
2023-05-30T14:42:53.126Z,2.88
2023-05-30T14:45:20.421Z,2.58
2023-05-30T14:47:47.834Z,3.00
2023-05-30T14:50:15.292Z,2.97
2023-05-30T14:52:42.808Z,3.28
2023-05-30T14:55:10.491Z,2.83
2023-05-30T14:57:37.894Z,3.40
2023-05-30T15:00:07.263Z,3.03
2023-05-30T15:02:34.677Z,3.40
2023-05-30T15:05:02.046Z,2.80
2023-05-30T15:07:29.330Z,2.15
2023-05-30T15:09:56.628Z,2.42
2023-05-30T15:12:23.829Z,2.17
2023-05-30T15:14:51.213Z,2.53
2023-05-30T15:17:18.623Z,2.35
2023-05-30T15:19:46.572Z,2.90
2023-05-30T15:22:13.983Z,3.20
2023-05-30T15:24:41.733Z,2.83
2023-05-30T15:27:09.248Z,2.67
2023-05-30T15:29:36.581Z,2.95
2023-05-30T15:32:03.959Z,3.08
2023-05-30T15:34:31.214Z,3.03
2023-05-30T15:36:58.575Z,2.90
2023-05-30T15:39:25.904Z,2.78
2023-05-30T15:41:53.212Z,3.10
2023-05-30T15:44:20.537Z,3.15
2023-05-30T15:46:47.898Z,2.30
2023-05-30T15:49:15.195Z,2.33
2023-05-30T15:51:42.494Z,2.88
2023-05-30T15:54:09.759Z,2.85
2023-05-30T15:56:37.080Z,2.47
2023-05-30T15:59:04.352Z,2.05
2023-05-30T16:01:31.646Z,2.22
2023-05-30T16:03:59.109Z,2.20
2023-05-30T16:06:26.462Z,2.40
2023-05-30T16:08:53.782Z,1.90
2023-05-30T16:11:21.084Z,2.00
2023-05-30T16:13:48.328Z,2.05
2023-05-30T16:16:16.034Z,2.08
2023-05-30T16:18:43.416Z,2.13
2023-05-30T16:21:10.818Z,1.90
2023-05-30T16:23:38.280Z,1.90
2023-05-30T16:26:05.654Z,2.17
2023-05-30T16:28:32.914Z,1.85
2023-05-30T16:31:00.445Z,2.10
2023-05-30T16:33:28.524Z,1.90
2023-05-30T16:35:55.828Z,2.00
2023-05-30T16:38:23.254Z,2.13
2023-05-30T16:40:52.711Z,2.30
2023-05-30T16:43:20.233Z,2.20
2023-05-30T16:45:47.718Z,1.80
2023-05-30T16:48:15.049Z,2.25
2023-05-30T16:50:42.354Z,2.05
2023-05-30T16:53:09.707Z,2.03
2023-05-30T16:55:37.071Z,1.90
2023-05-30T16:58:04.413Z,2.15
2023-05-30T17:00:31.933Z,2.08
2023-05-30T17:02:59.292Z,1.90
2023-05-30T17:05:26.655Z,2.10
2023-05-30T17:07:54.042Z,2.15
2023-05-30T17:10:21.388Z,2.20
2023-05-30T17:12:49.786Z,2.70
2023-05-30T17:15:17.054Z,1.80
2023-05-30T17:17:44.410Z,2.10
2023-05-30T17:20:13.087Z,2.10
2023-05-30T17:22:42.282Z,2.38
2023-05-30T17:25:10.131Z,2.70
2023-05-30T17:27:37.470Z,2.20
2023-05-30T17:30:05.586Z,2.70
2023-05-30T17:32:33.088Z,2.58
2023-05-30T17:35:00.448Z,2.40
2023-05-30T17:37:27.786Z,2.22
2023-05-30T17:39:55.142Z,2.35
2023-05-30T17:42:22.434Z,4.72
2023-05-30T17:44:51.685Z,2.65
2023-05-30T17:47:19.090Z,2.75
2023-05-30T17:49:46.434Z,2.45
2023-05-30T17:52:14.013Z,3.42
2023-05-30T17:54:42.095Z,2.70
2023-05-30T17:57:10.319Z,3.03
2023-05-30T17:59:37.645Z,3.22
2023-05-30T18:02:05.003Z,2.75
2023-05-30T18:04:32.341Z,3.13
2023-05-30T18:06:59.723Z,3.00
2023-05-30T18:09:26.974Z,3.03
2023-05-30T18:11:55.364Z,3.28
2023-05-30T18:14:23.005Z,4.13
2023-05-30T18:16:50.692Z,4.53
2023-05-30T18:19:18.029Z,3.90
2023-05-30T18:21:45.551Z,3.20
2023-05-30T18:24:13.039Z,3.83
2023-05-30T18:26:40.339Z,3.67
2023-05-30T18:29:09.273Z,3.58
2023-05-30T18:31:36.880Z,3.40
2023-05-30T18:34:04.217Z,3.47
2023-05-30T18:36:33.936Z,4.10
2023-05-30T18:39:02.097Z,3.60
2023-05-30T18:41:29.493Z,3.70
2023-05-30T18:43:57.178Z,4.15
2023-05-30T18:46:24.523Z,4.53
2023-05-30T18:48:54.549Z,4.32
2023-05-30T18:51:22.403Z,4.22
2023-05-30T18:53:51.104Z,5.22
2023-05-30T18:56:18.488Z,5.10
2023-05-30T18:58:45.908Z,4.55
2023-05-30T19:01:13.283Z,5.10
2023-05-30T19:03:41.565Z,4.80
2023-05-30T19:06:09.158Z,4.85
2023-05-30T19:08:36.481Z,4.90
2023-05-30T19:11:03.768Z,5.25
2023-05-30T19:13:31.104Z,4.60
2023-05-30T19:15:58.768Z,5.45
2023-05-30T19:18:26.221Z,4.70
2023-05-30T19:20:55.579Z,5.13
2023-05-30T19:23:23.103Z,4.28
2023-05-30T19:25:50.773Z,3.53
2023-05-30T19:28:18.106Z,5.10
2023-05-30T19:30:45.527Z,5.35
2023-05-30T19:33:13.140Z,4.28
2023-05-30T19:35:40.514Z,4.35
2023-05-30T19:38:07.885Z,4.30
2023-05-30T19:40:36.209Z,5.50
2023-05-30T19:43:04.664Z,4.45
2023-05-30T19:45:31.982Z,4.90
2023-05-30T19:47:59.367Z,4.40
2023-05-30T19:50:26.661Z,4.82
2023-05-30T19:52:54.857Z,3.33
2023-05-30T19:55:24.056Z,3.83
2023-05-30T19:57:51.314Z,3.38
2023-05-30T20:00:18.656Z,3.28
2023-05-30T20:02:46.032Z,3.13
2023-05-30T20:05:13.430Z,2.72
2023-05-30T20:07:40.813Z,2.75
2023-05-30T20:10:08.204Z,3.25
2023-05-30T20:12:35.482Z,3.03
2023-05-30T20:15:02.855Z,2.75
2023-05-30T20:17:30.224Z,3.13
2023-05-30T20:19:57.877Z,3.00
2023-05-30T20:22:25.218Z,2.58
2023-05-30T20:24:52.601Z,2.67
2023-05-30T20:27:21.191Z,2.15
2023-05-30T20:29:48.983Z,2.30
2023-05-30T20:32:16.523Z,1.85
2023-05-30T20:34:43.880Z,2.05
2023-05-30T20:37:11.168Z,1.42
2023-05-30T20:39:38.543Z,2.75
2023-05-30T20:42:05.883Z,1.70
2023-05-30T20:44:33.106Z,1.95
2023-05-30T20:47:00.515Z,4.95
2023-05-30T20:49:27.890Z,2.83
2023-05-30T20:51:55.649Z,1.75
2023-05-30T20:54:23.039Z,1.58
2023-05-30T20:56:50.321Z,1.27
2023-05-30T20:59:17.619Z,1.80
2023-05-30T21:01:45.526Z,1.17
2023-05-30T21:04:12.916Z,1.02
2023-05-30T21:06:40.150Z,1.38
2023-05-30T21:09:07.646Z,1.48
2023-05-30T21:11:34.884Z,1.20
2023-05-30T21:14:02.267Z,1.95
2023-05-30T21:16:29.605Z,1.33
2023-05-30T21:18:59.113Z,1.17
2023-05-30T21:21:27.460Z,1.05
2023-05-30T21:23:54.900Z,1.30
2023-05-30T21:26:22.925Z,1.00
2023-05-30T21:28:50.427Z,0.90
2023-05-30T21:31:17.800Z,1.30
2023-05-30T21:33:45.312Z,0.93
2023-05-30T21:36:12.553Z,1.00
2023-05-30T21:38:41.930Z,1.10
2023-05-30T21:41:09.228Z,1.20
2023-05-30T21:43:36.431Z,0.93
2023-05-30T21:46:03.774Z,1.30
2023-05-30T21:48:31.065Z,0.82
2023-05-30T21:50:58.578Z,1.20
2023-05-30T21:53:26.108Z,1.45
2023-05-30T21:55:53.367Z,1.20
2023-05-30T21:58:20.682Z,1.20
2023-05-30T22:00:49.854Z,0.90
2023-05-30T22:03:17.357Z,0.90
2023-05-30T22:05:44.672Z,1.05
2023-05-30T22:08:12.012Z,0.90
2023-05-30T22:10:39.402Z,1.38
2023-05-30T22:13:06.963Z,0.82
2023-05-30T22:15:34.408Z,0.63
2023-05-30T22:18:01.682Z,1.02
2023-05-30T22:20:29.177Z,1.00
2023-05-30T22:22:56.610Z,0.70
2023-05-30T22:25:26.461Z,0.90
2023-05-30T22:27:53.782Z,0.68
2023-05-30T22:30:21.188Z,1.02
2023-05-30T22:32:48.580Z,0.68
2023-05-30T22:35:16.061Z,0.80
2023-05-30T22:37:43.371Z,0.70
2023-05-30T22:40:10.724Z,0.90
2023-05-30T22:42:38.057Z,1.00
2023-05-30T22:45:06.230Z,0.90
2023-05-30T22:47:33.542Z,0.80
2023-05-30T22:50:00.840Z,1.92
2023-05-30T22:52:28.139Z,1.00
2023-05-30T22:54:55.511Z,0.70
2023-05-30T22:57:22.824Z,0.68
2023-05-30T22:59:50.098Z,0.60
2023-05-30T23:02:17.427Z,0.70
2023-05-30T23:04:44.791Z,0.90
2023-05-30T23:07:12.308Z,0.95
2023-05-30T23:09:39.552Z,0.75
2023-05-30T23:12:07.901Z,0.73
2023-05-30T23:14:35.459Z,0.68
2023-05-30T23:17:02.733Z,1.10
2023-05-30T23:19:32.449Z,0.82
2023-05-30T23:21:59.988Z,0.75
2023-05-30T23:24:27.284Z,1.00
2023-05-30T23:26:54.732Z,0.90
2023-05-30T23:29:21.999Z,0.90
2023-05-30T23:31:49.425Z,0.68
2023-05-30T23:34:19.530Z,0.82
2023-05-30T23:36:46.900Z,0.77
2023-05-30T23:39:14.228Z,0.52
2023-05-30T23:41:41.593Z,0.80
2023-05-30T23:44:08.895Z,0.60
2023-05-30T23:46:36.291Z,0.57
2023-05-30T23:49:03.589Z,0.50
2023-05-30T23:51:30.963Z,0.68
2023-05-30T23:53:58.229Z,0.52
2023-05-30T23:56:26.099Z,0.63
2023-05-30T23:58:53.329Z,0.50
